Time;durP1;ratioP1;P1;durP2;ratioP2;P2;SDS_P1;SDS_P2;PMS_P1;PMS_P2;Temp;Humidity;BMP_temperature;BMP_pressure;BME280_temperature;BME280_humidity;BME280_pressure;Samples;Min_cycle;Max_cycle;Signal;HPM_P1;HPM_P2
2021/06/21 00:01:53;;;;;;;10.67;9.57;;;26.30;1.00;;;;;;5131011;28;20459;-70
2021/06/21 00:04:20;;;;;;;13.80;11.40;;;26.30;44.40;;;;;;5134035;28;20474;-71
2021/06/21 00:06:46;;;;;;;11.77;10.40;;;26.30;99.90;;;;;;5125326;28;20537;-71
2021/06/21 00:09:13;;;;;;;13.33;11.90;;;26.30;99.90;;;;;;5125477;28;20452;-70
2021/06/21 00:11:41;;;;;;;15.80;11.87;;;26.20;99.90;;;;;;5124950;28;20460;-70
2021/06/21 00:14:08;;;;;;;11.47;10.23;;;26.20;1.00;;;;;;5130638;28;20456;-70
2021/06/21 00:16:35;;;;;;;11.43;10.40;;;26.20;1.00;;;;;;5132248;28;20448;-71
2021/06/21 00:19:02;;;;;;;12.03;10.97;;;26.10;1.00;;;;;;5133073;28;20452;-71
2021/06/21 00:21:31;;;;;;;12.77;11.30;;;26.10;39.00;;;;;;5133018;27;20448;-71
2021/06/21 00:23:58;;;;;;;18.70;12.83;;;26.10;99.90;;;;;;5133282;28;20449;-71
2021/06/21 00:26:25;;;;;;;12.13;10.60;;;26.00;99.90;;;;;;5135110;27;20476;-71
2021/06/21 00:28:53;;;;;;;13.23;11.13;;;25.90;99.90;;;;;;5133165;28;20476;-71
2021/06/21 00:31:19;;;;;;;14.30;11.80;;;25.90;1.00;;;;;;5134751;28;20460;-71
2021/06/21 00:33:46;;;;;;;11.13;10.13;;;25.90;1.00;;;;;;5134032;28;20444;-73
2021/06/21 00:36:13;;;;;;;11.50;10.50;;;25.80;1.00;;;;;;5129866;28;20452;-71
2021/06/21 00:38:40;;;;;;;12.30;11.33;;;25.70;1.00;;;;;;5132668;28;20441;-71
2021/06/21 00:41:06;;;;;;;10.90;10.00;;;25.70;1.00;;;;;;5130238;28;20543;-72
2021/06/21 00:43:33;;;;;;;11.60;10.33;;;25.60;1.00;;;;;;5129969;28;20448;-71
2021/06/21 00:46:02;;;;;;;10.40;9.30;;;25.60;1.00;;;;;;5133449;28;20456;-73
2021/06/21 00:48:28;;;;;;;11.13;10.10;;;25.50;64.70;;;;;;5132820;28;20971;-71
2021/06/21 00:50:55;;;;;;;11.03;10.00;;;25.40;99.90;;;;;;5126505;28;20445;-71
2021/06/21 00:53:25;;;;;;;10.57;9.63;;;25.40;99.90;;;;;;5128379;28;20463;-71
2021/06/21 00:55:52;;;;;;;11.93;10.83;;;25.30;1.00;;;;;;5135617;28;20463;-70
2021/06/21 00:58:19;;;;;;;11.63;10.30;;;25.30;1.00;;;;;;5135818;28;20462;-71
2021/06/21 01:00:46;;;;;;;10.80;9.60;;;25.20;1.00;;;;;;5134636;28;20463;-71
2021/06/21 01:03:14;;;;;;;11.97;9.70;;;25.20;1.00;;;;;;5133655;28;20460;-71
2021/06/21 01:05:41;;;;;;;10.97;10.07;;;25.10;1.00;;;;;;5135419;28;20519;-71
2021/06/21 01:08:09;;;;;;;10.83;9.80;;;25.20;1.00;;;;;;5134109;28;21038;-71
2021/06/21 01:10:38;;;;;;;11.67;9.83;;;25.10;1.00;;;;;;5125509;28;20482;-71
2021/06/21 01:13:39;;;;;;;10.73;9.80;;;25.10;1.00;;;;;;5125664;28;20900;-71
2021/06/21 01:16:17;;;;;;;10.90;9.70;;;25.10;1.00;;;;;;5132612;28;20433;-71
2021/06/21 01:18:54;;;;;;;10.67;9.73;;;25.00;99.90;;;;;;5131881;28;20436;-71
2021/06/21 01:22:01;;;;;;;9.90;8.80;;;25.00;99.90;;;;;;5134267;28;20486;-72
2021/06/21 01:25:05;;;;;;;10.80;9.80;;;25.00;99.90;;;;;;5132433;28;20432;-72
2021/06/21 01:27:39;;;;;;;10.07;9.13;;;24.90;1.00;;;;;;5128363;28;20514;-71
2021/06/21 01:30:11;;;;;;;9.90;8.90;;;24.90;1.00;;;;;;5129844;28;20441;-70
2021/06/21 01:32:44;;;;;;;9.97;9.10;;;24.90;1.00;;;;;;5127718;28;20508;-70
2021/06/21 01:35:15;;;;;;;9.93;9.03;;;24.80;1.00;;;;;;5125098;28;20437;-71
2021/06/21 01:37:42;;;;;;;10.00;9.03;;;24.80;1.00;;;;;;5133737;28;20429;-71
2021/06/21 01:40:10;;;;;;;10.77;9.77;;;24.80;1.00;;;;;;5131396;28;20905;-71
2021/06/21 01:42:40;;;;;;;9.90;9.00;;;24.80;1.00;;;;;;5131780;28;20486;-71
2021/06/21 01:45:12;;;;;;;13.03;8.67;;;24.80;1.00;;;;;;5129235;28;20452;-70
2021/06/21 01:47:42;;;;;;;10.90;9.80;;;24.80;1.00;;;;;;5127526;28;20488;-70
2021/06/21 01:50:10;;;;;;;9.70;8.80;;;24.80;1.00;;;;;;5127027;28;20456;-71
2021/06/21 01:52:41;;;;;;;10.90;9.80;;;24.70;1.00;;;;;;5127454;28;20463;-71
2021/06/21 01:55:12;;;;;;;10.70;9.60;;;24.70;1.00;;;;;;5130953;28;20453;-71
2021/06/21 01:57:40;;;;;;;10.20;9.23;;;24.70;62.10;;;;;;5134046;28;20441;-71
2021/06/21 02:00:10;;;;;;;10.00;9.10;;;24.70;99.90;;;;;;5128203;28;20441;-70
2021/06/21 02:02:41;;;;;;;10.23;9.30;;;24.70;99.90;;;;;;5129836;28;20445;-72
2021/06/21 02:05:11;;;;;;;11.77;10.43;;;24.70;99.90;;;;;;5128613;28;20447;-70
2021/06/21 02:07:40;;;;;;;9.80;8.97;;;24.70;99.90;;;;;;5129188;28;20491;-70
2021/06/21 02:10:09;;;;;;;11.73;10.53;;;24.70;1.00;;;;;;5130609;28;20502;-70
2021/06/21 02:12:37;;;;;;;11.27;10.17;;;24.70;1.00;;;;;;5133108;28;20452;-70
2021/06/21 02:15:06;;;;;;;10.90;10.00;;;24.60;1.00;;;;;;5129998;28;20449;-70
2021/06/21 02:17:33;;;;;;;9.93;8.97;;;24.60;1.00;;;;;;5128960;28;20448;-71
2021/06/21 02:20:01;;;;;;;12.37;9.87;;;24.60;1.00;;;;;;5131671;28;20449;-71
2021/06/21 02:22:30;;;;;;;11.03;9.70;;;24.70;1.00;;;;;;5131745;28;20477;-71
2021/06/21 02:24:59;;;;;;;10.70;9.60;;;24.70;1.00;;;;;;5129470;28;20459;-71
2021/06/21 02:27:26;;;;;;;12.27;9.97;;;24.70;1.00;;;;;;5124071;28;20472;-71
2021/06/21 02:29:56;;;;;;;11.77;9.70;;;24.70;32.80;;;;;;5125031;28;20462;-70
2021/06/21 02:32:23;;;;;;;10.53;9.30;;;24.80;99.90;;;;;;5122831;28;20453;-71
2021/06/21 02:34:52;;;;;;;11.30;9.90;;;24.80;98.60;;;;;;5125569;28;20472;-71
2021/06/21 02:37:20;;;;;;;11.03;9.83;;;24.80;1.00;;;;;;5133460;28;20451;-71
2021/06/21 02:39:47;;;;;;;12.97;11.57;;;24.80;1.00;;;;;;5132426;28;20455;-71
2021/06/21 02:42:14;;;;;;;12.03;10.93;;;24.80;99.90;;;;;;5131727;28;20491;-71
2021/06/21 02:44:41;;;;;;;12.97;11.67;;;24.70;99.90;;;;;;5134278;28;20456;-71
2021/06/21 02:47:08;;;;;;;12.10;10.93;;;24.60;1.00;;;;;;5132574;28;20487;-71
2021/06/21 02:49:35;;;;;;;14.50;10.33;;;24.40;1.00;;;;;;5131533;28;20478;-71
2021/06/21 02:52:10;;;;;;;13.47;11.80;;;24.40;1.00;;;;;;5133119;28;20455;-72
2021/06/21 02:54:44;;;;;;;14.27;12.77;;;24.30;1.00;;;;;;5132564;28;20466;-72
2021/06/21 02:57:17;;;;;;;18.30;13.83;;;24.20;1.00;;;;;;5127195;28;20429;-72
2021/06/21 02:59:45;;;;;;;14.37;13.00;;;23.90;1.00;;;;;;5128360;28;20448;-72
2021/06/21 03:02:13;;;;;;;16.17;13.17;;;23.60;1.00;;;;;;5128214;28;20452;-71
2021/06/21 03:04:41;;;;;;;14.30;13.07;;;23.50;1.00;;;;;;5129268;28;20464;-72
2021/06/21 03:07:11;;;;;;;15.37;13.97;;;23.40;1.00;;;;;;5126911;28;20480;-71
2021/06/21 03:09:44;;;;;;;16.73;15.00;;;23.30;1.00;;;;;;5129620;28;20535;-71
2021/06/21 03:12:12;;;;;;;16.10;14.40;;;23.30;1.00;;;;;;5129646;28;20432;-71
2021/06/21 03:14:43;;;;;;;15.60;14.10;;;23.30;1.00;;;;;;5130605;28;20453;-71
2021/06/21 03:17:11;;;;;;;14.83;13.43;;;23.30;1.00;;;;;;5128412;28;20500;-72
2021/06/21 03:19:39;;;;;;;16.13;14.37;;;23.30;1.00;;;;;;5126232;28;20461;-72
2021/06/21 03:22:06;;;;;;;12.70;11.60;;;23.40;1.00;;;;;;5131184;28;20567;-72
2021/06/21 03:24:33;;;;;;;14.33;11.83;;;23.40;1.00;;;;;;5131941;28;20458;-71
2021/06/21 03:27:03;;;;;;;14.20;13.00;;;23.60;1.00;;;;;;5131066;28;20502;-71
2021/06/21 03:29:30;;;;;;;13.87;12.67;;;23.60;1.00;;;;;;5115898;28;20437;-66
2021/06/21 03:31:57;;;;;;;14.97;13.47;;;23.60;1.00;;;;;;5114873;28;20463;-66
2021/06/21 03:34:25;;;;;;;13.00;11.90;;;23.70;1.00;;;;;;5114665;28;20460;-66
2021/06/21 03:36:52;;;;;;;14.73;12.07;;;23.70;1.00;;;;;;5115074;28;20452;-66
2021/06/21 03:39:19;;;;;;;13.23;11.93;;;23.60;1.00;;;;;;5114744;28;20449;-66
2021/06/21 03:41:46;;;;;;;12.80;11.70;;;23.60;1.00;;;;;;5114729;28;20471;-66
2021/06/21 03:44:14;;;;;;;13.17;11.97;;;23.60;1.00;;;;;;5114554;28;20459;-66
2021/06/21 03:46:41;;;;;;;16.43;12.40;;;23.70;1.00;;;;;;5114420;28;20829;-66
2021/06/21 03:49:08;;;;;;;12.97;12.00;;;23.70;1.00;;;;;;5114819;28;20475;-66
2021/06/21 03:51:37;;;;;;;14.77;13.30;;;23.80;1.00;;;;;;5114842;28;20449;-66
2021/06/21 03:54:05;;;;;;;14.80;13.50;;;23.80;1.00;;;;;;5114932;28;20452;-66
2021/06/21 03:56:31;;;;;;;14.53;13.27;;;23.80;1.00;;;;;;5114775;28;20459;-66
2021/06/21 03:58:58;;;;;;;14.13;12.73;;;23.90;1.00;;;;;;5114771;28;20463;-66
2021/06/21 04:01:26;;;;;;;14.67;13.20;;;23.90;1.00;;;;;;5114966;28;20461;-65
2021/06/21 04:03:58;;;;;;;13.37;12.17;;;23.90;1.00;;;;;;5114648;28;20452;-65
2021/06/21 04:06:25;;;;;;;14.27;12.77;;;24.00;1.00;;;;;;5114775;28;20440;-65
2021/06/21 04:08:52;;;;;;;13.57;12.30;;;24.00;1.00;;;;;;5115442;28;20975;-65
2021/06/21 04:11:18;;;;;;;12.57;11.00;;;24.00;1.00;;;;;;5118667;28;20467;-65
2021/06/21 04:13:45;;;;;;;12.63;11.40;;;24.10;1.00;;;;;;5118214;28;20456;-65
2021/06/21 04:16:15;;;;;;;13.47;12.10;;;24.10;1.00;;;;;;5118317;27;20481;-67
2021/06/21 04:18:43;;;;;;;13.43;12.23;;;24.10;1.00;;;;;;5118100;28;20456;-66
2021/06/21 04:21:10;;;;;;;12.67;11.53;;;24.10;1.00;;;;;;5118138;28;20467;-66
2021/06/21 04:23:36;;;;;;;12.77;11.57;;;24.10;1.00;;;;;;5118500;27;20925;-66
2021/06/21 04:26:03;;;;;;;12.53;11.10;;;24.10;1.00;;;;;;5118640;28;20456;-66
2021/06/21 04:28:30;;;;;;;12.87;11.67;;;24.10;1.00;;;;;;5118196;28;20487;-66
2021/06/21 04:30:57;;;;;;;15.37;12.40;;;24.10;1.00;;;;;;5118009;28;20556;-66
2021/06/21 04:33:24;;;;;;;11.90;10.80;;;24.00;1.00;;;;;;5118183;28;20781;-66
2021/06/21 04:35:52;;;;;;;15.43;12.50;;;24.10;1.00;;;;;;5118110;28;20787;-66
2021/06/21 04:38:23;;;;;;;11.87;10.67;;;24.10;1.00;;;;;;5117752;28;20940;-66
2021/06/21 04:40:51;;;;;;;12.07;10.87;;;24.10;1.00;;;;;;5118298;28;20837;-66
2021/06/21 04:43:19;;;;;;;12.50;11.30;;;24.00;1.00;;;;;;5117941;28;20824;-66
2021/06/21 04:45:46;;;;;;;11.90;10.70;;;24.00;1.00;;;;;;5117975;27;20816;-66
2021/06/21 04:48:13;;;;;;;13.47;9.57;;;24.00;1.00;;;;;;5117113;28;20793;-66
2021/06/21 04:50:41;;;;;;;11.10;10.10;;;24.00;1.00;;;;;;5118188;28;20456;-66
2021/06/21 04:53:11;;;;;;;11.23;10.10;;;24.00;1.00;;;;;;5117480;27;20923;-66
2021/06/21 04:55:38;;;;;;;19.07;17.13;;;24.00;1.00;;;;;;5117806;28;20476;-66
2021/06/21 04:58:05;;;;;;;15.57;10.70;;;24.00;1.00;;;;;;5117745;28;20452;-66
2021/06/21 05:00:31;;;;;;;12.00;9.17;;;24.00;1.00;;;;;;5117358;28;20452;-66
2021/06/21 05:02:58;;;;;;;10.93;10.00;;;24.00;1.00;;;;;;5117300;28;20460;-66
2021/06/21 05:05:25;;;;;;;10.47;9.50;;;24.00;1.00;;;;;;5117115;27;20475;-66
2021/06/21 05:07:55;;;;;;;10.57;9.57;;;24.10;1.00;;;;;;5117318;28;20487;-66
2021/06/21 05:10:25;;;;;;;10.40;9.40;;;24.10;1.00;;;;;;5117335;28;20867;-66
2021/06/21 05:12:52;;;;;;;10.40;9.40;;;24.10;1.00;;;;;;5117441;28;20456;-66
2021/06/21 05:15:20;;;;;;;9.97;9.07;;;24.20;1.00;;;;;;5117514;28;20758;-66
2021/06/21 05:17:47;;;;;;;12.10;9.63;;;24.20;1.00;;;;;;5117072;28;20452;-65
2021/06/21 05:20:15;;;;;;;10.50;9.60;;;24.20;1.00;;;;;;5116604;28;20452;-66
2021/06/21 05:22:42;;;;;;;10.10;9.20;;;24.20;1.00;;;;;;5116427;28;20944;-66
2021/06/21 05:25:10;;;;;;;9.83;9.03;;;24.20;1.00;;;;;;5118253;28;20456;-65
2021/06/21 05:27:38;;;;;;;10.03;8.57;;;24.20;1.00;;;;;;5116935;28;20467;-65
2021/06/21 05:30:06;;;;;;;10.10;9.20;;;24.20;1.00;;;;;;5116947;28;20773;-66
2021/06/21 05:32:33;;;;;;;12.50;9.53;;;24.10;1.00;;;;;;5116716;28;20521;-65
2021/06/21 05:35:00;;;;;;;10.53;9.63;;;24.10;1.00;;;;;;5116996;28;20456;-65
2021/06/21 05:37:27;;;;;;;10.67;9.63;;;24.10;1.00;;;;;;5116444;28;20459;-65
2021/06/21 05:39:53;;;;;;;10.53;9.57;;;24.10;1.00;;;;;;5116841;28;20465;-67
2021/06/21 05:42:23;;;;;;;9.50;8.80;;;24.20;1.00;;;;;;5116512;28;20913;-67
2021/06/21 05:44:52;;;;;;;11.60;10.50;;;24.30;1.00;;;;;;5116687;28;20459;-66
2021/06/21 05:47:19;;;;;;;10.40;9.27;;;24.40;1.00;;;;;;5116898;28;20993;-66
2021/06/21 05:49:46;;;;;;;11.33;10.30;;;24.40;99.90;;;;;;5117747;28;20506;-66
2021/06/21 05:52:13;;;;;;;12.73;11.30;;;24.50;99.90;;;;;;5116868;28;20468;-66
2021/06/21 05:54:39;;;;;;;12.93;10.30;;;24.50;99.90;;;;;;5117289;28;20456;-66
2021/06/21 05:57:06;;;;;;;11.20;10.10;;;24.60;99.90;;;;;;5116402;28;20529;-66
2021/06/21 05:59:33;;;;;;;13.53;11.00;;;24.70;99.90;;;;;;5116323;28;20460;-66
2021/06/21 06:02:01;;;;;;;11.60;10.40;;;24.70;1.00;;;;;;5116870;28;20456;-66
2021/06/21 06:04:28;;;;;;;11.37;10.00;;;24.80;53.60;;;;;;5118117;28;20459;-66
2021/06/21 06:06:55;;;;;;;11.73;10.60;;;24.90;1.00;;;;;;5116657;28;20543;-66
2021/06/21 06:09:22;;;;;;;16.03;11.37;;;25.00;1.00;;;;;;5117252;28;20968;-67
2021/06/21 06:11:49;;;;;;;11.47;10.30;;;25.00;20.50;;;;;;5116209;27;20938;-68
2021/06/21 06:14:15;;;;;;;12.00;10.53;;;25.10;1.00;;;;;;5116038;28;20491;-68
2021/06/21 06:16:42;;;;;;;10.47;9.57;;;25.10;99.90;;;;;;5115840;28;20464;-68
2021/06/21 06:19:10;;;;;;;12.23;11.00;;;25.10;99.90;;;;;;5116226;28;20654;-67
2021/06/21 06:21:37;;;;;;;12.90;11.70;;;25.10;99.90;;;;;;5116027;28;20476;-67
2021/06/21 06:24:04;;;;;;;12.03;10.70;;;25.10;1.00;;;;;;5115654;28;20463;-67
2021/06/21 06:26:31;;;;;;;23.57;21.27;;;25.10;99.90;;;;;;5115943;28;20463;-68
2021/06/21 06:28:58;;;;;;;14.60;13.20;;;25.10;1.00;;;;;;5115757;28;20624;-68
2021/06/21 06:31:24;;;;;;;12.57;11.23;;;25.20;1.00;;;;;;5115378;28;20453;-67
2021/06/21 06:33:51;;;;;;;12.23;10.37;;;25.30;1.00;;;;;;5115701;28;20761;-66
2021/06/21 06:36:19;;;;;;;14.33;12.30;;;25.40;1.00;;;;;;5116009;28;20452;-66
2021/06/21 06:38:46;;;;;;;13.70;12.40;;;25.60;1.00;;;;;;5115075;28;20927;-67
2021/06/21 06:41:12;;;;;;;10.67;9.77;;;25.70;99.90;;;;;;5115582;28;20479;-68
2021/06/21 06:43:39;;;;;;;14.33;12.33;;;25.70;99.90;;;;;;5115427;28;20464;-68
2021/06/21 06:46:06;;;;;;;14.30;12.40;;;25.80;99.90;;;;;;5115456;27;20460;-68
2021/06/21 06:48:33;;;;;;;13.97;12.67;;;25.80;1.00;;;;;;5115418;28;20477;-68
2021/06/21 06:50:59;;;;;;;13.73;12.33;;;25.80;1.00;;;;;;5115426;28;20479;-68
2021/06/21 06:53:36;;;;;;;12.60;11.50;;;25.80;99.90;;;;;;5114828;28;20950;-68
2021/06/21 06:58:46;;;;;;;13.17;11.87;;;25.90;99.90;;;;;;5115495;28;20892;-67
2021/06/21 07:01:13;;;;;;;15.17;13.67;;;25.90;1.00;;;;;;5115334;28;20460;-67
2021/06/21 07:03:41;;;;;;;13.57;12.37;;;25.90;99.90;;;;;;5114926;28;20468;-67
2021/06/21 07:06:08;;;;;;;14.50;11.80;;;25.90;99.90;;;;;;5115352;28;20456;-67
2021/06/21 07:08:36;;;;;;;16.30;13.10;;;25.90;1.00;;;;;;5114948;28;20487;-68
2021/06/21 07:11:03;;;;;;;16.80;13.47;;;25.90;99.90;;;;;;5115027;28;20999;-67
2021/06/21 07:13:29;;;;;;;15.43;12.60;;;26.00;99.90;;;;;;5114865;28;20913;-67
2021/06/21 07:15:56;;;;;;;14.77;13.30;;;26.00;99.90;;;;;;5116531;28;20452;-68
2021/06/21 07:18:23;;;;;;;13.50;12.17;;;26.10;99.90;;;;;;5114715;28;20448;-68
2021/06/21 07:20:49;;;;;;;13.70;12.40;;;26.10;1.00;;;;;;5115244;28;20785;-68
2021/06/21 07:23:16;;;;;;;14.33;11.97;;;26.20;99.90;;;;;;5115243;28;20462;-67
2021/06/21 07:25:45;;;;;;;12.90;11.70;;;26.30;1.00;;;;;;5115501;28;20456;-66
2021/06/21 07:28:14;;;;;;;13.87;12.60;;;26.40;1.00;;;;;;5115019;28;20460;-67
2021/06/21 07:30:40;;;;;;;12.87;11.77;;;26.50;1.00;;;;;;5114912;28;20474;-67
2021/06/21 07:33:07;;;;;;;16.23;11.87;;;26.70;99.90;;;;;;5115002;28;20456;-67
2021/06/21 07:35:34;;;;;;;15.83;11.60;;;26.90;84.10;;;;;;5115122;28;20467;-68
2021/06/21 07:38:01;;;;;;;14.10;11.80;;;27.00;1.00;;;;;;5115328;28;20452;-68
2021/06/21 07:40:27;;;;;;;12.30;11.20;;;27.20;1.00;;;;;;5115085;28;20460;-68
2021/06/21 07:42:55;;;;;;;18.63;10.97;;;27.20;1.00;;;;;;5115496;28;20895;-68
2021/06/21 07:45:22;;;;;;;14.20;12.80;;;27.30;1.00;;;;;;5118608;28;20463;-68
2021/06/21 07:47:51;;;;;;;16.10;12.37;;;27.30;1.00;;;;;;5119710;28;20488;-68
2021/06/21 07:50:18;;;;;;;12.27;11.00;;;27.30;1.00;;;;;;5119327;28;20816;-67
2021/06/21 07:52:45;;;;;;;15.00;12.13;;;27.20;1.00;;;;;;5118698;28;20492;-67
2021/06/21 07:55:12;;;;;;;14.33;12.50;;;27.10;1.00;;;;;;5118868;27;20462;-68
2021/06/21 07:57:38;;;;;;;12.57;11.47;;;27.00;1.00;;;;;;5118678;28;20781;-68
2021/06/21 08:00:08;;;;;;;13.27;12.03;;;27.00;1.00;;;;;;5118742;28;20546;-67
2021/06/21 08:02:35;;;;;;;13.33;11.53;;;27.00;1.00;;;;;;5118292;28;20466;-68
2021/06/21 08:05:02;;;;;;;12.10;10.90;;;26.90;1.00;;;;;;5118228;28;20904;-68
2021/06/21 08:07:28;;;;;;;12.57;11.40;;;26.90;1.00;;;;;;5118576;28;20464;-68
2021/06/21 08:09:55;;;;;;;13.97;11.37;;;27.00;1.00;;;;;;5118538;28;20483;-68
2021/06/21 08:12:22;;;;;;;12.10;11.00;;;27.00;1.00;;;;;;5117766;28;20465;-68
2021/06/21 08:14:48;;;;;;;11.63;10.30;;;27.00;1.00;;;;;;5118107;28;20517;-68
2021/06/21 08:17:16;;;;;;;11.43;9.30;;;27.10;1.00;;;;;;5118490;28;20882;-67
2021/06/21 08:19:44;;;;;;;12.80;8.90;;;27.20;1.00;;;;;;5118165;28;20459;-68
2021/06/21 08:22:11;;;;;;;12.10;8.77;;;27.20;1.00;;;;;;5118559;28;20464;-67
2021/06/21 08:24:41;;;;;;;8.90;7.63;;;27.30;99.90;;;;;;5117962;28;20927;-68
2021/06/21 08:27:08;;;;;;;9.10;7.80;;;27.40;99.90;;;;;;5118227;28;20780;-68
2021/06/21 08:29:35;;;;;;;7.70;7.10;;;27.40;99.90;;;;;;5117923;28;20476;-68
2021/06/21 08:32:02;;;;;;;7.60;6.80;;;27.40;99.90;;;;;;5118020;28;20456;-68
2021/06/21 08:34:31;;;;;;;10.63;7.10;;;27.50;99.90;;;;;;5117992;28;20463;-68
2021/06/21 08:36:57;;;;;;;7.60;5.43;;;27.50;99.90;;;;;;5117690;28;20942;-67
2021/06/21 08:39:24;;;;;;;6.63;6.03;;;27.50;99.90;;;;;;5117502;28;20448;-67
2021/06/21 08:41:53;;;;;;;8.87;6.03;;;27.50;99.90;;;;;;5117408;28;20463;-67
2021/06/21 08:44:19;;;;;;;7.10;5.63;;;27.50;99.90;;;;;;5117827;28;20783;-67
2021/06/21 08:46:49;;;;;;;7.40;5.90;;;27.50;99.90;;;;;;5117503;28;20484;-67
2021/06/21 08:49:17;;;;;;;8.27;5.03;;;27.50;99.90;;;;;;5117570;28;20484;-67
2021/06/21 08:51:48;;;;;;;7.67;4.73;;;27.50;99.90;;;;;;5117098;28;20913;-67
2021/06/21 08:54:15;;;;;;;7.73;4.37;;;27.50;99.90;;;;;;5117232;28;20444;-66
2021/06/21 08:56:42;;;;;;;4.67;3.80;;;27.50;99.90;;;;;;5116450;28;20457;-67
2021/06/21 08:59:09;;;;;;;5.20;3.40;;;27.50;67.80;;;;;;5117577;28;20456;-67
2021/06/21 09:01:41;;;;;;;8.77;4.40;;;27.40;46.50;;;;;;5117910;28;20510;-68
2021/06/21 09:04:13;;;;;;;11.83;4.20;;;27.40;73.90;;;;;;5117644;28;20803;-68
2021/06/21 09:06:43;;;;;;;6.90;3.30;;;27.40;91.90;;;;;;5118996;28;20437;-68
2021/06/21 09:09:11;;;;;;;5.30;3.07;;;27.50;64.80;;;;;;5119145;28;20478;-67
2021/06/21 09:11:54;;;;;;;5.93;2.90;;;27.50;56.90;;;;;;5117982;28;20449;-67
2021/06/21 09:14:36;;;;;;;5.23;2.77;;;27.60;29.80;;;;;;5117389;28;20918;-67
2021/06/21 09:17:05;;;;;;;4.20;2.10;;;27.60;24.60;;;;;;5117614;28;20456;-68
2021/06/21 09:19:43;;;;;;;4.83;1.90;;;27.70;14.40;;;;;;5118363;28;20782;-68
2021/06/21 09:22:26;;;;;;;4.23;1.90;;;27.80;1.00;;;;;;5120409;28;20463;-68
2021/06/21 09:24:54;;;;;;;2.57;1.57;;;27.90;1.00;;;;;;5119048;28;20440;-67
2021/06/21 09:27:23;;;;;;;2.23;1.70;;;27.80;1.00;;;;;;5118423;28;20453;-68
2021/06/21 09:29:52;;;;;;;3.23;2.00;;;27.80;1.00;;;;;;5118930;28;20555;-68
2021/06/21 09:32:19;;;;;;;6.27;2.20;;;27.80;1.00;;;;;;5118589;28;20851;-68
2021/06/21 09:34:46;;;;;;;2.10;1.77;;;27.70;1.00;;;;;;5118122;28;20467;-68
2021/06/21 09:37:15;;;;;;;3.30;1.97;;;27.70;1.00;;;;;;5117693;28;20911;-68
2021/06/21 09:39:44;;;;;;;4.40;2.03;;;27.70;1.00;;;;;;5116857;28;20505;-67
2021/06/21 09:42:15;;;;;;;5.40;2.30;;;27.70;1.00;;;;;;5116905;28;20517;-69
2021/06/21 09:44:44;;;;;;;5.00;2.40;;;27.60;1.00;;;;;;5117599;28;20762;-68
2021/06/21 09:47:19;;;;;;;2.90;2.20;;;27.60;1.00;;;;;;5116404;28;20480;-68
2021/06/21 09:49:54;;;;;;;4.13;2.47;;;27.70;1.00;;;;;;5116934;28;20939;-68
2021/06/21 09:52:34;;;;;;;4.60;2.47;;;27.90;1.00;;;;;;5117459;28;20451;-68
2021/06/21 09:55:08;;;;;;;9.20;3.10;;;28.00;1.00;;;;;;5116823;28;20440;-68
2021/06/21 09:57:41;;;;;;;3.00;2.70;;;28.00;1.00;;;;;;5116090;28;20894;-68
2021/06/21 10:00:09;;;;;;;4.30;2.77;;;28.00;1.00;;;;;;5116994;28;20445;-68
2021/06/21 10:02:36;;;;;;;3.20;2.90;;;28.00;1.00;;;;;;5116467;28;20463;-67
2021/06/21 10:05:04;;;;;;;3.50;3.13;;;28.00;1.00;;;;;;5116480;28;20561;-66
2021/06/21 10:07:33;;;;;;;6.90;3.53;;;27.90;1.00;;;;;;5116462;28;20468;-67
2021/06/21 10:10:04;;;;;;;5.93;3.77;;;27.90;1.00;;;;;;5116376;28;20476;-67
2021/06/21 10:12:34;;;;;;;5.40;3.30;;;27.90;1.00;;;;;;5116640;28;20441;-68
2021/06/21 10:15:06;;;;;;;5.30;3.40;;;27.90;1.00;;;;;;5116417;28;20480;-68
2021/06/21 10:17:36;;;;;;;5.63;3.53;;;28.00;1.00;;;;;;5116194;28;20437;-68
2021/06/21 10:20:03;;;;;;;4.73;4.07;;;28.10;1.00;;;;;;5115815;28;20448;-68
2021/06/21 10:22:30;;;;;;;4.53;3.87;;;28.10;1.00;;;;;;5116235;28;20803;-67
2021/06/21 10:24:59;;;;;;;7.70;3.50;;;28.30;1.00;;;;;;5115791;28;20468;-67
2021/06/21 10:27:27;;;;;;;7.70;4.07;;;28.40;1.00;;;;;;5115525;28;20965;-67
2021/06/21 10:29:55;;;;;;;8.43;4.13;;;28.50;1.00;;;;;;5115920;28;20479;-66
2021/06/21 10:32:25;;;;;;;3.87;3.57;;;28.60;1.00;;;;;;5115989;28;20467;-67
2021/06/21 10:34:52;;;;;;;5.40;4.10;;;28.60;1.00;;;;;;5115995;28;20457;-66
2021/06/21 10:37:21;;;;;;;8.63;4.17;;;28.60;1.00;;;;;;5115768;28;20463;-66
2021/06/21 10:39:50;;;;;;;7.60;3.93;;;28.60;1.00;;;;;;5116600;28;20539;-67
2021/06/21 10:42:21;;;;;;;4.23;3.83;;;28.60;1.00;;;;;;5115802;28;20456;-67
2021/06/21 10:44:51;;;;;;;6.77;3.87;;;28.70;1.00;;;;;;5116168;28;20452;-67
2021/06/21 10:47:26;;;;;;;4.20;3.67;;;28.70;1.00;;;;;;5115889;28;20957;-67
2021/06/21 10:50:01;;;;;;;4.13;3.60;;;28.70;1.00;;;;;;5115683;28;20464;-67
2021/06/21 10:52:33;;;;;;;4.50;4.10;;;28.70;1.00;;;;;;5115297;28;20437;-67
2021/06/21 10:55:33;;;;;;;6.87;4.63;;;28.80;1.00;;;;;;5115573;28;20456;-68
2021/06/21 10:58:02;;;;;;;4.40;3.80;;;28.90;1.00;;;;;;5115523;28;20460;-66
2021/06/21 11:00:34;;;;;;;5.50;3.83;;;28.90;1.00;;;;;;5115508;28;20543;-68
2021/06/21 11:03:03;;;;;;;9.03;4.20;;;29.00;1.00;;;;;;5115566;28;20441;-66
2021/06/21 11:05:37;;;;;;;4.90;3.77;;;29.00;1.00;;;;;;5115251;28;20456;-68
2021/06/21 11:08:15;;;;;;;5.63;3.87;;;29.10;1.00;;;;;;5115607;28;20460;-67
2021/06/21 11:10:45;;;;;;;4.10;3.80;;;29.10;1.00;;;;;;5115171;28;20507;-67
2021/06/21 11:13:43;;;;;;;4.20;3.77;;;29.00;1.00;;;;;;5115261;28;20479;-67
2021/06/21 11:16:27;;;;;;;7.30;4.03;;;29.10;1.00;;;;;;5115213;28;20456;-68
2021/06/21 11:19:27;;;;;;;6.27;3.80;;;29.20;1.00;;;;;;5114313;28;20447;-67
2021/06/21 11:21:56;;;;;;;4.77;3.90;;;29.30;1.00;;;;;;5114806;28;20556;-67
2021/06/21 11:24:51;;;;;;;3.90;3.60;;;29.50;1.00;;;;;;5115318;28;20555;-68
2021/06/21 11:27:19;;;;;;;6.43;3.63;;;29.70;1.00;;;;;;5115153;28;20452;-67
2021/06/21 11:29:47;;;;;;;3.83;3.40;;;30.20;1.00;;;;;;5114711;28;20480;-68
2021/06/21 11:32:17;;;;;;;4.60;3.77;;;30.70;1.00;;;;;;5115050;28;20456;-68
2021/06/21 11:34:48;;;;;;;3.50;3.20;;;31.20;1.00;;;;;;5115063;28;20451;-67
2021/06/21 11:37:35;;;;;;;3.80;3.50;;;31.80;1.00;;;;;;5114553;28;20461;-67
2021/06/21 11:40:22;;;;;;;5.80;3.33;;;32.20;1.00;;;;;;5115099;28;20785;-68
2021/06/21 11:43:14;;;;;;;4.33;2.90;;;32.70;1.00;;;;;;5114434;28;20456;-68
2021/06/21 11:45:53;;;;;;;4.90;2.93;;;33.10;1.00;;;;;;5114481;28;20436;-69
2021/06/21 11:48:24;;;;;;;6.83;3.17;;;33.50;1.00;;;;;;5114576;28;20488;-66
2021/06/21 11:50:53;;;;;;;7.40;3.67;;;34.00;1.00;;;;;;5114809;28;20461;-66
2021/06/21 11:53:20;;;;;;;2.70;2.50;;;34.40;1.00;;;;;;5114818;28;20453;-68
2021/06/21 11:55:47;;;;;;;3.10;2.80;;;34.60;1.00;;;;;;5114751;28;20467;-68
2021/06/21 11:58:14;;;;;;;6.30;3.50;;;34.90;1.00;;;;;;5114735;28;20905;-67
2021/06/21 12:00:40;;;;;;;4.53;2.53;;;35.10;1.00;;;;;;5114742;28;20459;-67
2021/06/21 12:03:08;;;;;;;6.70;2.93;;;35.30;1.00;;;;;;5114434;28;20452;-67
2021/06/21 12:05:35;;;;;;;6.90;2.90;;;35.50;1.00;;;;;;5114425;28;21100;-67
2021/06/21 12:08:14;;;;;;;3.77;2.70;;;35.90;1.00;;;;;;5114587;28;20463;-67
2021/06/21 12:10:41;;;;;;;3.60;2.43;;;36.20;1.00;;;;;;5114173;28;20475;-67
2021/06/21 12:13:09;;;;;;;5.50;2.63;;;36.50;1.00;;;;;;5114269;28;20931;-67
2021/06/21 12:15:38;;;;;;;3.57;3.27;;;36.50;1.00;;;;;;5114817;28;20452;-66
2021/06/21 12:18:05;;;;;;;5.23;2.77;;;36.50;1.00;;;;;;5114984;28;20479;-66
2021/06/21 12:20:33;;;;;;;6.90;2.67;;;36.30;1.00;;;;;;5114965;28;20924;-66
2021/06/21 12:23:02;;;;;;;6.13;2.70;;;36.00;1.00;;;;;;5114410;28;20830;-67
2021/06/21 12:25:32;;;;;;;6.47;3.67;;;36.00;1.00;;;;;;5114350;28;20834;-67
2021/06/21 12:28:16;;;;;;;3.60;3.00;;;36.00;1.00;;;;;;5114177;28;20463;-67
2021/06/21 12:30:46;;;;;;;5.53;2.57;;;35.90;1.00;;;;;;5116100;28;20471;-68
2021/06/21 12:33:28;;;;;;;6.23;2.50;;;35.90;1.00;;;;;;5118091;28;20456;-67
2021/06/21 12:36:16;;;;;;;10.30;2.83;;;36.10;1.00;;;;;;5117854;28;20448;-67
2021/06/21 12:38:53;;;;;;;4.30;2.53;;;36.50;1.00;;;;;;5117923;27;20441;-66
2021/06/21 12:41:23;;;;;;;7.73;2.60;;;37.00;1.00;;;;;;5117559;28;20440;-66
2021/06/21 12:43:59;;;;;;;5.67;3.00;;;37.40;1.00;;;;;;5118341;28;20526;-68
2021/06/21 12:46:28;;;;;;;9.47;2.63;;;37.50;1.00;;;;;;5117746;28;20479;-67
2021/06/21 12:48:55;;;;;;;6.97;3.20;;;37.20;1.00;;;;;;5117391;28;20533;-67
2021/06/21 12:51:22;;;;;;;3.73;2.57;;;36.40;1.00;;;;;;5117783;28;20488;-67
2021/06/21 12:53:51;;;;;;;6.10;3.17;;;35.50;1.00;;;;;;5117448;28;20468;-68
2021/06/21 12:56:24;;;;;;;3.53;2.43;;;34.40;1.00;;;;;;5117422;28;20467;-66
2021/06/21 12:58:51;;;;;;;5.30;2.83;;;33.80;1.00;;;;;;5117651;28;20462;-66